createdAt,value
2023-04-10T00:02:00.486Z,101611.22
2023-04-10T00:04:28.440Z,101611.88
2023-04-10T00:06:55.467Z,101618.53
2023-04-10T00:09:22.028Z,101609.84
2023-04-10T00:11:48.526Z,101608.56
2023-04-10T00:14:14.947Z,101603.25
2023-04-10T00:16:41.569Z,101607.22
2023-04-10T00:19:08.145Z,101601.16
2023-04-10T00:21:34.591Z,101613.88
2023-04-10T00:24:01.069Z,101611.69
2023-04-10T00:26:27.555Z,101609.53
2023-04-10T00:28:54.001Z,101606.81
2023-04-10T00:31:20.588Z,101610.75
2023-04-10T00:33:47.258Z,101612.69
2023-04-10T00:36:13.863Z,101609.44
2023-04-10T00:38:40.472Z,101615.16
2023-04-10T00:41:07.140Z,101611.31
2023-04-10T00:43:33.756Z,101612.34
2023-04-10T00:46:00.780Z,101600.72
2023-04-10T00:48:27.776Z,101608.44
2023-04-10T00:50:54.437Z,101612.84
2023-04-10T00:53:22.021Z,101610.19
2023-04-10T00:55:49.590Z,101615.66
2023-04-10T00:58:16.232Z,101606.44
2023-04-10T01:00:42.699Z,101610.97
2023-04-10T01:03:11.239Z,101609.88
2023-04-10T01:06:08.563Z,101604.53
2023-04-10T01:08:44.263Z,101612.59
2023-04-10T01:11:17.600Z,101611.41
2023-04-10T01:13:53.152Z,101611.22
2023-04-10T01:16:19.743Z,101610.38
2023-04-10T01:19:12.332Z,101611.16
2023-04-10T01:21:40.810Z,101606.34
2023-04-10T01:25:04.521Z,101605.66
2023-04-10T01:28:04.634Z,101610.22
2023-04-10T01:30:32.927Z,101604.50
2023-04-10T01:33:01.966Z,101602.63
2023-04-10T01:35:30.532Z,101603.94
2023-04-10T01:38:00.497Z,101601.75
2023-04-10T01:40:28.782Z,101601.75
2023-04-10T01:42:57.108Z,101599.34
2023-04-10T01:45:28.912Z,101606.44
2023-04-10T01:47:56.292Z,101604.22
2023-04-10T01:50:24.444Z,101609.03
2023-04-10T01:52:54.624Z,101610.94
2023-04-10T01:55:21.949Z,101609.16
2023-04-10T01:57:49.255Z,101619.31
2023-04-10T02:00:16.734Z,101609.66
2023-04-10T02:02:44.220Z,101604.59
2023-04-10T02:05:11.096Z,101609.16
2023-04-10T02:07:45.434Z,101597.72
2023-04-10T02:10:35.870Z,101600.09
2023-04-10T02:13:12.117Z,101603.06
2023-04-10T02:15:42.450Z,101605.75
2023-04-10T02:18:11.049Z,101596.03
2023-04-10T02:20:37.741Z,101593.47
2023-04-10T02:23:05.376Z,101594.34
2023-04-10T02:25:33.321Z,101589.19
2023-04-10T02:28:07.477Z,101596.59
2023-04-10T02:30:34.612Z,101585.44
2023-04-10T02:33:01.163Z,101590.81
2023-04-10T02:35:29.251Z,101590.19
2023-04-10T02:37:55.920Z,101585.69
2023-04-10T02:40:23.570Z,101589.47
2023-04-10T02:42:50.081Z,101589.72
2023-04-10T02:45:16.595Z,101587.06
2023-04-10T02:47:43.033Z,101583.41
2023-04-10T02:50:10.092Z,101582.06
2023-04-10T02:52:36.608Z,101577.78
2023-04-10T02:55:03.218Z,101567.22
2023-04-10T02:57:29.700Z,101564.91
2023-04-10T02:59:56.124Z,101556.34
2023-04-10T03:02:22.780Z,101563.00
2023-04-10T03:04:49.372Z,101557.25
2023-04-10T03:07:17.044Z,101550.78
2023-04-10T03:09:45.401Z,101552.66
2023-04-10T03:12:11.858Z,101557.41
2023-04-10T03:14:38.285Z,101558.63
2023-04-10T03:17:04.718Z,101549.19
2023-04-10T03:19:31.298Z,101546.31
2023-04-10T03:21:57.720Z,101551.66
2023-04-10T03:24:24.179Z,101554.16
2023-04-10T03:26:51.902Z,101545.13
2023-04-10T03:29:19.030Z,101548.81
2023-04-10T03:31:46.119Z,101546.50
2023-04-10T03:34:12.618Z,101538.47
2023-04-10T03:36:39.104Z,101543.50
2023-04-10T03:39:05.901Z,101539.44
2023-04-10T03:41:32.410Z,101535.84
2023-04-10T03:43:58.953Z,101533.59
2023-04-10T03:46:25.674Z,101534.38
2023-04-10T03:48:53.906Z,101538.38
2023-04-10T03:51:20.657Z,101537.63
2023-04-10T03:53:47.192Z,101530.19
2023-04-10T03:56:13.706Z,101530.75
2023-04-10T03:58:40.235Z,101534.38
2023-04-10T04:01:07.629Z,101538.34
2023-04-10T04:03:34.341Z,101526.69
2023-04-10T04:06:01.174Z,101536.44
2023-04-10T04:08:27.605Z,101541.94
2023-04-10T04:10:54.022Z,101536.88
2023-04-10T04:13:20.566Z,101537.53
2023-04-10T04:15:47.879Z,101533.59
2023-04-10T04:18:14.357Z,101530.69
2023-04-10T04:20:41.034Z,101528.91
2023-04-10T04:23:07.688Z,101529.00
2023-04-10T04:25:34.099Z,101529.47
2023-04-10T04:28:01.379Z,101527.28
2023-04-10T04:30:27.862Z,101532.16
2023-04-10T04:32:54.571Z,101526.59
2023-04-10T04:35:21.938Z,101537.47
2023-04-10T04:37:48.439Z,101538.84
2023-04-10T04:40:14.872Z,101530.41
2023-04-10T04:42:41.305Z,101540.97
2023-04-10T04:45:08.397Z,101535.16
2023-04-10T04:47:34.898Z,101539.34
2023-04-10T04:50:01.345Z,101536.16
2023-04-10T04:52:28.053Z,101533.31
2023-04-10T04:54:54.467Z,101522.78
2023-04-10T04:57:21.685Z,101529.31
2023-04-10T04:59:48.079Z,101523.34
2023-04-10T05:02:14.692Z,101523.19
2023-04-10T05:04:42.029Z,101527.22
2023-04-10T05:07:11.229Z,101523.56
2023-04-10T05:09:37.677Z,101522.59
2023-04-10T05:12:04.337Z,101525.25
2023-04-10T05:14:30.825Z,101524.09
2023-04-10T05:16:57.336Z,101522.41
2023-04-10T05:19:23.746Z,101518.16
2023-04-10T05:21:50.187Z,101518.75
2023-04-10T05:24:16.669Z,101520.63
2023-04-10T05:26:43.137Z,101528.06
2023-04-10T05:29:09.635Z,101527.09
2023-04-10T05:31:36.485Z,101531.56
2023-04-10T05:34:02.930Z,101530.31
2023-04-10T05:36:29.387Z,101525.47
2023-04-10T05:38:56.402Z,101534.69
2023-04-10T05:41:22.989Z,101534.00
2023-04-10T05:43:49.923Z,101529.66
2023-04-10T05:46:16.461Z,101531.69
2023-04-10T05:48:42.880Z,101529.75
2023-04-10T05:51:09.277Z,101530.72
2023-04-10T05:53:35.731Z,101536.59
2023-04-10T05:56:02.299Z,101528.78
2023-04-10T05:58:29.268Z,101524.59
2023-04-10T06:00:56.193Z,101520.72
2023-04-10T06:03:23.834Z,101518.97
2023-04-10T06:05:50.521Z,101523.84
2023-04-10T06:08:16.919Z,101510.31
2023-04-10T06:10:43.402Z,101520.34
2023-04-10T06:13:11.215Z,101519.88
2023-04-10T06:15:38.332Z,101518.28
2023-04-10T06:18:04.971Z,101527.97
2023-04-10T06:20:31.604Z,101526.19
2023-04-10T06:22:59.114Z,101524.97
2023-04-10T06:25:25.575Z,101518.50
2023-04-10T06:27:53.644Z,101517.28
2023-04-10T06:30:20.236Z,101523.81
2023-04-10T06:32:46.733Z,101520.66
2023-04-10T06:35:13.158Z,101518.63
2023-04-10T06:37:39.588Z,101515.53
2023-04-10T06:40:07.497Z,101517.34
2023-04-10T06:42:34.329Z,101513.19
2023-04-10T06:45:00.865Z,101516.22
2023-04-10T06:47:27.357Z,101509.22
2023-04-10T06:49:53.925Z,101514.63
2023-04-10T06:52:20.611Z,101506.84
2023-04-10T06:54:47.429Z,101504.41
2023-04-10T06:57:14.191Z,101499.59
2023-04-10T06:59:40.658Z,101501.09
2023-04-10T07:02:07.730Z,101498.34
2023-04-10T07:04:34.281Z,101498.63
2023-04-10T07:07:01.211Z,101494.81
2023-04-10T07:09:28.096Z,101491.34
2023-04-10T07:11:54.510Z,101478.84
2023-04-10T07:14:21.135Z,101479.88
2023-04-10T07:16:48.674Z,101475.69
2023-04-10T07:19:15.603Z,101468.03
2023-04-10T07:21:41.995Z,101464.38
2023-04-10T07:24:08.521Z,101456.50
2023-04-10T07:26:35.185Z,101462.41
2023-04-10T07:29:02.324Z,101454.25
2023-04-10T07:31:28.800Z,101455.66
2023-04-10T07:33:55.315Z,101461.28
2023-04-10T07:36:21.715Z,101464.78
2023-04-10T07:38:48.137Z,101459.72
2023-04-10T07:41:14.552Z,101450.13
2023-04-10T07:43:41.471Z,101451.16
2023-04-10T07:46:07.958Z,101444.00
2023-04-10T07:48:34.526Z,101443.50
2023-04-10T07:51:01.015Z,101447.75
2023-04-10T07:53:27.464Z,101439.03
2023-04-10T07:55:53.862Z,101442.72
2023-04-10T07:58:20.241Z,101446.06
2023-04-10T08:00:46.634Z,101442.19
2023-04-10T08:03:13.731Z,101440.78
2023-04-10T08:05:40.487Z,101435.16
2023-04-10T08:08:06.937Z,101430.81
2023-04-10T08:10:33.410Z,101434.25
2023-04-10T08:12:59.820Z,101429.81
2023-04-10T08:15:26.329Z,101434.50
2023-04-10T08:17:53.775Z,101414.16
2023-04-10T08:20:20.370Z,101413.84
2023-04-10T08:22:46.894Z,101421.13
2023-04-10T08:25:13.389Z,101409.97
2023-04-10T08:27:39.809Z,101407.94
2023-04-10T08:30:07.050Z,101401.91
2023-04-10T08:32:33.526Z,101410.22
2023-04-10T08:34:59.928Z,101414.94
2023-04-10T08:37:26.920Z,101400.72
2023-04-10T08:39:53.543Z,101398.38
2023-04-10T08:42:19.968Z,101408.88
2023-04-10T08:44:49.583Z,101406.88
2023-04-10T08:47:21.128Z,101404.50
2023-04-10T08:49:57.831Z,101389.13
2023-04-10T08:52:31.502Z,101382.00
2023-04-10T08:55:00.241Z,101383.75
2023-04-10T08:57:27.975Z,101376.59
2023-04-10T08:59:54.558Z,101382.09
2023-04-10T09:02:22.185Z,101382.03
2023-04-10T09:04:51.591Z,101374.97
2023-04-10T09:07:18.348Z,101376.38
2023-04-10T09:09:45.261Z,101363.69
2023-04-10T09:12:14.037Z,101365.03
2023-04-10T09:14:41.381Z,101362.97
2023-04-10T09:17:11.392Z,101362.13
2023-04-10T09:19:37.930Z,101359.03
2023-04-10T09:22:04.351Z,101354.28
2023-04-10T09:24:30.821Z,101345.66
2023-04-10T09:26:57.229Z,101340.28
2023-04-10T09:29:25.702Z,101334.41
2023-04-10T09:31:52.119Z,101329.88
2023-04-10T09:34:22.810Z,101332.44
2023-04-10T09:36:57.970Z,101319.28
2023-04-10T09:39:36.048Z,101314.50
2023-04-10T09:42:02.815Z,101317.59
2023-04-10T09:44:32.114Z,101320.31
2023-04-10T09:46:59.934Z,101310.13
2023-04-10T09:49:26.752Z,101307.56
2023-04-10T09:51:53.265Z,101300.81
2023-04-10T09:54:35.922Z,101300.81
2023-04-10T09:57:03.828Z,101294.00
2023-04-10T09:59:30.381Z,101294.50
2023-04-10T10:01:57.010Z,101287.41
2023-04-10T10:04:24.941Z,101276.25
2023-04-10T10:06:51.603Z,101264.19
2023-04-10T10:09:18.184Z,101266.94
2023-04-10T10:11:44.626Z,101258.53
2023-04-10T10:14:18.617Z,101261.63
2023-04-10T10:16:52.522Z,101251.44
2023-04-10T10:19:28.706Z,101250.13
2023-04-10T10:21:56.026Z,101252.66
2023-04-10T10:24:23.952Z,101243.81
2023-04-10T10:26:51.469Z,101229.81
2023-04-10T10:29:19.122Z,101230.16
2023-04-10T10:31:47.027Z,101219.59
2023-04-10T10:36:43.194Z,101208.81
2023-04-10T10:39:12.687Z,101203.09
2023-04-10T10:41:49.594Z,101188.22
2023-04-10T10:44:34.706Z,101183.59
2023-04-10T10:47:17.929Z,101187.13
2023-04-10T10:49:54.412Z,101176.72
2023-04-10T10:52:44.269Z,101167.50
2023-04-10T10:55:22.781Z,101167.59
2023-04-10T10:57:53.988Z,101169.16
2023-04-10T11:00:21.889Z,101154.56
2023-04-10T11:03:13.276Z,101138.16
2023-04-10T11:05:57.339Z,101146.75
2023-04-10T11:08:35.806Z,101148.72
2023-04-10T11:11:05.645Z,101142.84
2023-04-10T11:13:36.823Z,101152.59
2023-04-10T11:16:05.230Z,101140.69
2023-04-10T11:19:13.375Z,101117.50
2023-04-10T11:22:01.679Z,101110.94
2023-04-10T11:24:29.142Z,101110.56
2023-04-10T11:26:56.177Z,101111.38
2023-04-10T11:29:28.602Z,101104.00
2023-04-10T11:32:05.834Z,101094.78
2023-04-10T11:34:33.235Z,101087.31
2023-04-10T11:37:02.906Z,101090.66
2023-04-10T11:39:31.392Z,101081.63
2023-04-10T11:41:57.949Z,101075.41
2023-04-10T11:44:39.478Z,101072.34
2023-04-10T11:47:06.650Z,101083.50
2023-04-10T11:49:34.590Z,101069.47
2023-04-10T11:52:01.427Z,101053.34
2023-04-10T11:54:29.412Z,101057.41
2023-04-10T11:57:07.123Z,101036.66
2023-04-10T11:59:34.465Z,101050.50
2023-04-10T12:02:19.206Z,101053.81
2023-04-10T12:04:46.007Z,101025.38
2023-04-10T12:07:12.544Z,101031.91
2023-04-10T12:09:39.022Z,101017.56
2023-04-10T12:12:07.527Z,101023.91
2023-04-10T12:14:34.047Z,101000.88
2023-04-10T12:17:02.194Z,101014.63
2023-04-10T12:19:29.277Z,101002.22
2023-04-10T12:21:57.432Z,100994.91
2023-04-10T12:24:46.038Z,100991.03
2023-04-10T12:27:20.343Z,101004.22
2023-04-10T12:29:47.871Z,100984.53
2023-04-10T12:32:14.790Z,100990.38
2023-04-10T12:34:41.566Z,100974.84
2023-04-10T12:37:09.907Z,100992.16
2023-04-10T12:39:36.454Z,100984.00
2023-04-10T12:42:23.038Z,100980.44
2023-04-10T12:45:01.616Z,100981.09
2023-04-10T12:47:29.521Z,100969.44
2023-04-10T12:50:06.440Z,100969.97
2023-04-10T12:52:33.212Z,100963.97
2023-04-10T12:55:19.937Z,100959.28
2023-04-10T12:57:47.965Z,100965.97
2023-04-10T13:00:17.062Z,100944.81
2023-04-10T13:02:44.391Z,100932.28
2023-04-10T13:05:11.423Z,100945.34
2023-04-10T13:07:38.396Z,100929.31
2023-04-10T13:10:07.892Z,100923.66
2023-04-10T13:12:36.122Z,100915.72
2023-04-10T13:15:02.937Z,100925.03
2023-04-10T13:17:29.575Z,100914.00
2023-04-10T13:19:56.229Z,100908.31
2023-04-10T13:22:22.801Z,100913.59
2023-04-10T13:24:49.320Z,100902.13
2023-04-10T13:27:15.949Z,100906.09
2023-04-10T13:29:43.175Z,100889.63
2023-04-10T13:32:10.057Z,100897.81
2023-04-10T13:34:36.580Z,100878.34
2023-04-10T13:37:03.182Z,100889.59
2023-04-10T13:39:31.045Z,100877.88
2023-04-10T13:41:58.934Z,100890.91
2023-04-10T13:44:25.411Z,100881.81
2023-04-10T13:46:52.265Z,100883.31
2023-04-10T13:49:20.326Z,100864.97
2023-04-10T13:51:47.335Z,100866.50
2023-04-10T13:54:16.807Z,100873.97
2023-04-10T13:56:44.595Z,100868.00
2023-04-10T13:59:11.157Z,100866.63
2023-04-10T14:01:37.655Z,100853.03
2023-04-10T14:04:04.182Z,100846.97
2023-04-10T14:06:31.600Z,100857.00
2023-04-10T14:08:58.055Z,100844.56
2023-04-10T14:11:25.279Z,100838.19
2023-04-10T14:13:51.820Z,100825.88
2023-04-10T14:16:18.341Z,100828.59
2023-04-10T14:18:44.870Z,100817.97
2023-04-10T14:21:11.401Z,100818.84
2023-04-10T14:23:37.860Z,100804.44
2023-04-10T14:26:07.272Z,100817.31
2023-04-10T14:28:33.820Z,100806.09
2023-04-10T14:31:00.904Z,100797.63
2023-04-10T14:33:27.392Z,100794.06
2023-04-10T14:35:54.294Z,100783.69
2023-04-10T14:38:20.781Z,100784.25
2023-04-10T14:40:49.936Z,100776.94
2023-04-10T14:43:17.156Z,100762.81
2023-04-10T14:45:43.706Z,100758.53
2023-04-10T14:48:11.135Z,100746.66
2023-04-10T14:50:37.748Z,100749.19
2023-04-10T14:53:06.045Z,100736.75
2023-04-10T14:55:32.532Z,100733.38
2023-04-10T14:57:59.110Z,100732.50
2023-04-10T15:00:26.318Z,100722.16
2023-04-10T15:02:52.978Z,100710.44
2023-04-10T15:05:19.670Z,100715.06
2023-04-10T15:07:46.161Z,100712.63
2023-04-10T15:10:12.682Z,100711.50
2023-04-10T15:12:39.221Z,100698.00
2023-04-10T15:15:06.999Z,100703.28
2023-04-10T15:17:33.651Z,100694.13
2023-04-10T15:20:00.359Z,100695.13
2023-04-10T15:22:27.307Z,100689.72
2023-04-10T15:24:53.771Z,100682.75
2023-04-10T15:27:23.081Z,100685.09
2023-04-10T15:29:49.815Z,100676.06
2023-04-10T15:32:16.352Z,100671.28
2023-04-10T15:34:44.076Z,100655.75
2023-04-10T15:37:10.560Z,100653.47
2023-04-10T15:39:37.213Z,100647.53
2023-04-10T15:42:05.319Z,100645.75
2023-04-10T15:44:32.049Z,100630.41
2023-04-10T15:46:59.366Z,100625.75
2023-04-10T15:49:36.264Z,100630.13
2023-04-10T15:52:08.234Z,100607.78
2023-04-10T15:54:35.139Z,100602.84
2023-04-10T15:57:02.247Z,100598.63
2023-04-10T15:59:28.936Z,100590.44
2023-04-10T16:01:55.586Z,100582.81
2023-04-10T16:04:22.326Z,100586.25
2023-04-10T16:06:49.057Z,100574.81
2023-04-10T16:09:25.342Z,100562.16
2023-04-10T16:11:53.692Z,100560.25
2023-04-10T16:14:20.622Z,100543.75
2023-04-10T16:16:47.099Z,100549.50
2023-04-10T16:19:13.601Z,100556.22
2023-04-10T16:21:40.229Z,100556.94
2023-04-10T16:24:07.005Z,100545.09
2023-04-10T16:26:33.462Z,100533.25
2023-04-10T16:28:59.850Z,100530.00
2023-04-10T16:31:26.393Z,100517.88
2023-04-10T16:33:52.976Z,100511.94
2023-04-10T16:36:19.528Z,100505.06
2023-04-10T16:38:49.480Z,100506.28
2023-04-10T16:41:20.665Z,100511.03
2023-04-10T16:43:47.383Z,100506.41
2023-04-10T16:46:14.016Z,100508.63
2023-04-10T16:48:40.485Z,100502.56
2023-04-10T16:51:08.780Z,100492.03
2023-04-10T16:53:36.126Z,100483.41
2023-04-10T16:56:05.055Z,100479.47
2023-04-10T16:58:36.795Z,100490.13
2023-04-10T17:01:34.170Z,100494.31
2023-04-10T17:04:00.859Z,100481.72
2023-04-10T17:06:27.355Z,100485.84
2023-04-10T17:08:54.188Z,100473.81
2023-04-10T17:11:20.764Z,100472.22
2023-04-10T17:13:47.226Z,100464.72
2023-04-10T17:16:14.066Z,100467.16
2023-04-10T17:18:40.628Z,100463.97
2023-04-10T17:21:11.166Z,100462.97
2023-04-10T17:23:37.830Z,100452.78
2023-04-10T17:26:05.762Z,100451.72
2023-04-10T17:28:33.778Z,100449.59
2023-04-10T17:31:00.781Z,100447.47
2023-04-10T17:33:28.515Z,100440.50
2023-04-10T17:35:55.581Z,100443.09
2023-04-10T17:38:22.018Z,100433.72
2023-04-10T17:40:48.415Z,100428.56
2023-04-10T17:43:14.865Z,100434.81
2023-04-10T17:45:41.391Z,100428.47
2023-04-10T17:48:10.828Z,100425.06
2023-04-10T17:50:37.282Z,100419.56
2023-04-10T17:53:03.770Z,100423.19
2023-04-10T17:55:30.490Z,100428.88
2023-04-10T17:57:57.863Z,100420.41
2023-04-10T18:00:24.436Z,100435.38
2023-04-10T18:02:52.929Z,100426.06
2023-04-10T18:05:19.440Z,100423.81
2023-04-10T18:07:45.927Z,100422.94
2023-04-10T18:10:12.471Z,100423.59
2023-04-10T18:12:40.357Z,100416.13
2023-04-10T18:15:07.609Z,100421.00
2023-04-10T18:17:34.340Z,100416.72
2023-04-10T18:20:00.783Z,100423.22
2023-04-10T18:22:28.704Z,100409.66
2023-04-10T18:24:55.196Z,100406.50
2023-04-10T18:27:21.703Z,100403.41
2023-04-10T18:29:48.147Z,100395.78
2023-04-10T18:32:14.543Z,100396.84
2023-04-10T18:34:40.958Z,100405.50
2023-04-10T18:37:09.741Z,100388.66
2023-04-10T18:39:38.067Z,100393.75
2023-04-10T18:42:07.289Z,100378.53
2023-04-10T18:44:34.861Z,100369.81
2023-04-10T18:47:05.124Z,100360.63
2023-04-10T18:49:32.156Z,100364.47
2023-04-10T18:51:58.692Z,100368.84
2023-04-10T18:54:27.082Z,100360.81
2023-04-10T18:56:53.644Z,100353.97
2023-04-10T18:59:20.207Z,100352.88
2023-04-10T19:01:46.797Z,100352.25
2023-04-10T19:04:13.389Z,100348.75
2023-04-10T19:06:40.976Z,100336.59
2023-04-10T19:09:10.340Z,100330.81
2023-04-10T19:11:37.077Z,100331.84
2023-04-10T19:14:03.593Z,100331.41
2023-04-10T19:16:30.396Z,100323.69
2023-04-10T19:18:57.212Z,100314.44
2023-04-10T19:21:23.895Z,100321.00
2023-04-10T19:23:50.371Z,100321.78
2023-04-10T19:26:19.530Z,100318.50
2023-04-10T19:28:46.392Z,100324.22
2023-04-10T19:31:13.172Z,100309.72
2023-04-10T19:33:39.785Z,100315.50
2023-04-10T19:36:08.362Z,100312.00
2023-04-10T19:38:35.260Z,100295.72
2023-04-10T19:41:01.701Z,100298.56
2023-04-10T19:43:28.202Z,100299.56
2023-04-10T19:45:55.126Z,100292.09
2023-04-10T19:48:21.548Z,100284.59
2023-04-10T19:50:48.000Z,100287.97
2023-04-10T19:53:15.585Z,100295.91
2023-04-10T19:55:44.232Z,100288.50
2023-04-10T19:58:20.713Z,100289.06
2023-04-10T20:01:02.567Z,100285.44
2023-04-10T20:03:29.158Z,100294.91
2023-04-10T20:05:56.203Z,100287.31
2023-04-10T20:08:22.715Z,100299.66
2023-04-10T20:10:49.201Z,100281.97
2023-04-10T20:13:15.880Z,100293.22
2023-04-10T20:15:43.168Z,100286.28
2023-04-10T20:18:09.621Z,100279.28
2023-04-10T20:20:36.031Z,100285.50
2023-04-10T20:23:02.407Z,100278.03
2023-04-10T20:25:28.861Z,100273.00
2023-04-10T20:27:55.287Z,100255.50
2023-04-10T20:30:21.855Z,100250.31
2023-04-10T20:32:48.267Z,100240.44
2023-04-10T20:35:14.701Z,100231.72
2023-04-10T20:37:41.110Z,100222.72
2023-04-10T20:40:08.366Z,100223.34
2023-04-10T20:42:34.817Z,100210.56
2023-04-10T20:45:01.236Z,100207.66
2023-04-10T20:47:28.658Z,100206.16
2023-04-10T20:49:55.271Z,100204.41
2023-04-10T20:52:21.740Z,100199.47
2023-04-10T20:54:48.248Z,100198.47
2023-04-10T20:57:14.658Z,100197.91
2023-04-10T20:59:41.164Z,100190.94
2023-04-10T21:02:07.779Z,100188.88
2023-04-10T21:04:34.368Z,100177.31
2023-04-10T21:07:00.812Z,100179.31
2023-04-10T21:09:27.223Z,100184.56
2023-04-10T21:11:53.627Z,100172.97
2023-04-10T21:14:20.114Z,100157.06
2023-04-10T21:16:46.609Z,100155.09
2023-04-10T21:19:13.483Z,100143.75
2023-04-10T21:21:39.907Z,100137.41
2023-04-10T21:24:06.351Z,100137.03
2023-04-10T21:26:32.813Z,100127.25
2023-04-10T21:28:59.228Z,100126.00
2023-04-10T21:31:25.720Z,100115.66
2023-04-10T21:33:52.253Z,100119.88
2023-04-10T21:36:18.719Z,100123.25
2023-04-10T21:38:45.257Z,100124.66
2023-04-10T21:41:11.749Z,100121.03
2023-04-10T21:43:39.686Z,100108.88
2023-04-10T21:46:06.347Z,100110.06
2023-04-10T21:48:32.901Z,100105.78
2023-04-10T21:50:59.477Z,100096.78
2023-04-10T21:53:25.937Z,100091.44
2023-04-10T21:55:52.457Z,100088.16
2023-04-10T21:58:18.885Z,100093.09
2023-04-10T22:00:47.249Z,100091.72
2023-04-10T22:03:19.925Z,100097.63
2023-04-10T22:05:47.781Z,100082.69
2023-04-10T22:08:14.969Z,100082.97
2023-04-10T22:10:41.400Z,100081.97
2023-04-10T22:13:10.221Z,100080.72
2023-04-10T22:15:36.884Z,100085.38
2023-04-10T22:18:03.462Z,100084.94
2023-04-10T22:20:29.976Z,100088.34
2023-04-10T22:22:56.447Z,100093.44
2023-04-10T22:25:22.892Z,100113.09
2023-04-10T22:27:49.468Z,100123.72
2023-04-10T22:30:15.996Z,100101.81
2023-04-10T22:32:42.436Z,100098.38
2023-04-10T22:35:08.953Z,100095.44
2023-04-10T22:37:35.483Z,100100.09
2023-04-10T22:40:02.021Z,100104.84
2023-04-10T22:42:31.189Z,100093.78
2023-04-10T22:44:58.379Z,100095.75
2023-04-10T22:47:24.838Z,100098.03
2023-04-10T22:49:51.328Z,100079.03
2023-04-10T22:52:17.745Z,100066.19
2023-04-10T22:54:44.191Z,100078.44
2023-04-10T22:57:10.930Z,100070.84
2023-04-10T22:59:37.883Z,100076.22
2023-04-10T23:02:04.616Z,100072.81
2023-04-10T23:04:31.384Z,100066.63
2023-04-10T23:06:57.905Z,100056.47
2023-04-10T23:09:24.336Z,100062.63
2023-04-10T23:11:50.782Z,100054.16
2023-04-10T23:14:17.235Z,100045.41
2023-04-10T23:16:46.923Z,100048.25
2023-04-10T23:19:13.414Z,100039.41
2023-04-10T23:21:39.823Z,100034.03
2023-04-10T23:24:06.547Z,100036.00
2023-04-10T23:26:33.267Z,100041.75
2023-04-10T23:28:59.917Z,100047.75
2023-04-10T23:31:26.373Z,100037.75
2023-04-10T23:33:52.894Z,100035.84
2023-04-10T23:36:19.320Z,100027.81
2023-04-10T23:38:45.781Z,100028.41
2023-04-10T23:41:12.192Z,100035.25
2023-04-10T23:43:38.587Z,100041.81
2023-04-10T23:46:05.271Z,100039.34
2023-04-10T23:48:31.740Z,100053.59
2023-04-10T23:51:08.671Z,100054.22
2023-04-10T23:53:35.437Z,100052.38
2023-04-10T23:56:01.994Z,100065.03
2023-04-10T23:58:28.459Z,100070.75
